createdAt,value
2017-08-19T00:00:50.622Z,1003.1
2017-08-19T00:01:53.138Z,1003.1
2017-08-19T00:02:56.018Z,1003
2017-08-19T00:03:58.530Z,1003.1
2017-08-19T00:05:01.391Z,1003
2017-08-19T00:06:04.242Z,1003.1
2017-08-19T00:07:06.764Z,1003
2017-08-19T00:08:09.620Z,1003
2017-08-19T00:09:13.138Z,1003.1
2017-08-19T00:10:15.987Z,1003.1
2017-08-19T00:11:18.829Z,1003.1
2017-08-19T00:12:21.702Z,1003
2017-08-19T00:13:24.226Z,1003
2017-08-19T00:14:27.066Z,1003
2017-08-19T00:15:29.921Z,1003
2017-08-19T00:16:32.784Z,1003
2017-08-19T00:17:35.304Z,1003
2017-08-19T00:18:37.826Z,1003
2017-08-19T00:19:40.319Z,1003.1
2017-08-19T00:20:42.834Z,1003.1
2017-08-19T00:21:45.368Z,1003.1
2017-08-19T00:22:48.232Z,1003.1
2017-08-19T00:23:51.076Z,1003.1
2017-08-19T00:24:54.279Z,1003.1
2017-08-19T00:25:56.772Z,1003.1
2017-08-19T00:26:59.642Z,1003.1
2017-08-19T00:28:03.184Z,1003.1
2017-08-19T00:29:05.685Z,1003.2
2017-08-19T00:30:08.193Z,1003.2
2017-08-19T00:31:11.045Z,1003.2
2017-08-19T00:32:13.560Z,1003.2
2017-08-19T00:33:16.411Z,1003.2
2017-08-19T00:34:19.574Z,1003.3
2017-08-19T00:35:22.441Z,1003.3
2017-08-19T00:36:25.650Z,1003.3
2017-08-19T00:37:28.486Z,1003.4
2017-08-19T00:38:31.000Z,1003.3
2017-08-19T00:39:33.841Z,1003.4
2017-08-19T00:40:36.352Z,1003.3
2017-08-19T00:41:38.882Z,1003.4
2017-08-19T00:42:41.400Z,1003.4
2017-08-19T00:43:44.600Z,1003.4
2017-08-19T00:44:47.129Z,1003.4
2017-08-19T00:45:49.966Z,1003.4
2017-08-19T00:46:52.477Z,1003.4
2017-08-19T00:47:55.004Z,1003.5
2017-08-19T00:48:58.193Z,1003.5
2017-08-19T00:50:01.035Z,1003.4
2017-08-19T00:51:03.534Z,1003.4
2017-08-19T00:52:06.035Z,1003.5
2017-08-19T00:53:08.559Z,1003.4
2017-08-19T00:54:11.077Z,1003.5
2017-08-19T00:55:13.939Z,1003.5
2017-08-19T00:56:17.139Z,1003.5
2017-08-19T00:57:19.654Z,1003.5
2017-08-19T00:58:22.154Z,1003.5
2017-08-19T00:59:24.680Z,1003.5
2017-08-19T01:00:27.178Z,1003.5
2017-08-19T01:01:30.042Z,1003.5
2017-08-19T01:02:32.558Z,1003.6
2017-08-19T01:03:35.065Z,1003.6
2017-08-19T01:04:37.587Z,1003.5
2017-08-19T01:05:40.095Z,1003.5
2017-08-19T01:06:42.630Z,1003.6
2017-08-19T01:07:45.142Z,1003.6
2017-08-19T01:08:47.639Z,1003.5
2017-08-19T01:09:50.155Z,1003.5
2017-08-19T01:10:53.014Z,1003.5
2017-08-19T01:11:55.536Z,1003.5
2017-08-19T01:12:58.372Z,1003.4
2017-08-19T01:14:00.876Z,1003.4
2017-08-19T01:15:03.725Z,1003.4
2017-08-19T01:16:06.243Z,1003.5
2017-08-19T01:17:08.742Z,1003.5
2017-08-19T01:18:11.593Z,1003.4
2017-08-19T01:19:15.140Z,1003.5
2017-08-19T01:20:17.655Z,1003.5
2017-08-19T01:21:20.159Z,1003.5
2017-08-19T01:22:22.667Z,1003.4
2017-08-19T01:23:25.522Z,1003.4
2017-08-19T01:24:28.069Z,1003.4
2017-08-19T01:25:31.257Z,1003.4
2017-08-19T01:26:34.107Z,1003.4
2017-08-19T01:27:36.605Z,1003.4
2017-08-19T01:28:39.796Z,1003.3
2017-08-19T01:29:42.651Z,1003.3
2017-08-19T01:30:45.160Z,1003.3
2017-08-19T01:31:47.991Z,1003.3
2017-08-19T01:32:50.512Z,1003.3
2017-08-19T01:33:53.350Z,1003.3
2017-08-19T01:34:56.546Z,1003.3
2017-08-19T01:35:59.041Z,1003.2
2017-08-19T01:37:02.252Z,1003.2
2017-08-19T01:38:04.768Z,1003.1
2017-08-19T01:39:07.274Z,1003.1
2017-08-19T01:40:10.140Z,1003
2017-08-19T01:41:12.649Z,1003
2017-08-19T01:42:15.501Z,1003
2017-08-19T01:43:18.673Z,1003.1
2017-08-19T01:44:21.197Z,1003.2
2017-08-19T01:45:23.685Z,1003.3
2017-08-19T01:46:26.247Z,1003.3
2017-08-19T01:47:29.098Z,1003.3
2017-08-19T01:48:31.604Z,1003.3
2017-08-19T01:49:34.113Z,1003.3
2017-08-19T01:50:36.648Z,1003.4
2017-08-19T01:51:39.832Z,1003.4
2017-08-19T01:52:42.703Z,1003.5
2017-08-19T01:53:45.582Z,1003.5
2017-08-19T01:54:48.764Z,1003.5
2017-08-19T01:55:51.269Z,1003.4
2017-08-19T01:56:54.125Z,1003.4
2017-08-19T01:57:56.629Z,1003.4
2017-08-19T01:58:59.152Z,1003.4
2017-08-19T02:00:01.638Z,1003.5
2017-08-19T02:01:04.490Z,1003.5
2017-08-19T02:02:07.337Z,1003.5
2017-08-19T02:03:09.851Z,1003.5
2017-08-19T02:04:12.353Z,1003.5
2017-08-19T02:05:14.873Z,1003.5
2017-08-19T02:06:18.404Z,1003.4
2017-08-19T02:07:21.257Z,1003.4
2017-08-19T02:08:23.763Z,1003.5
2017-08-19T02:09:26.275Z,1003.5
2017-08-19T02:10:28.787Z,1003.5
2017-08-19T02:11:31.628Z,1003.6
2017-08-19T02:12:34.841Z,1003.5
2017-08-19T02:13:37.351Z,1003.5
2017-08-19T02:14:40.577Z,1003.5
2017-08-19T02:15:43.432Z,1003.4
2017-08-19T02:16:45.924Z,1003.5
2017-08-19T02:17:48.771Z,1003.5
2017-08-19T02:18:51.977Z,1003.5
2017-08-19T02:19:55.176Z,1003.5
2017-08-19T02:20:58.035Z,1003.5
2017-08-19T02:22:01.557Z,1003.5
2017-08-19T02:23:04.053Z,1003.6
2017-08-19T02:24:06.908Z,1003.6
2017-08-19T02:25:09.759Z,1003.6
2017-08-19T02:26:12.255Z,1003.6
2017-08-19T02:27:14.769Z,1003.5
2017-08-19T02:28:17.285Z,1003.6
2017-08-19T02:29:20.134Z,1003.6
2017-08-19T02:30:23.324Z,1003.5
2017-08-19T02:31:25.830Z,1003.6
2017-08-19T02:32:28.682Z,1003.6
2017-08-19T02:33:31.214Z,1003.6
2017-08-19T02:34:34.736Z,1003.6
2017-08-19T02:35:37.245Z,1003.6
2017-08-19T02:36:39.771Z,1003.6
2017-08-19T02:37:42.270Z,1003.6
2017-08-19T02:38:45.454Z,1003.6
2017-08-19T02:39:48.652Z,1003.6
2017-08-19T02:40:51.525Z,1003.7
2017-08-19T02:41:54.732Z,1003.7
2017-08-19T02:42:57.235Z,1003.7
2017-08-19T02:43:59.751Z,1003.7
2017-08-19T02:45:02.628Z,1003.7
2017-08-19T02:46:05.470Z,1003.7
2017-08-19T02:47:07.992Z,1003.7
2017-08-19T02:48:10.828Z,1003.7
2017-08-19T02:49:13.686Z,1003.8
2017-08-19T02:50:16.550Z,1003.8
2017-08-19T02:51:19.719Z,1003.7
2017-08-19T02:52:22.250Z,1003.7
2017-08-19T02:53:26.132Z,1003.7
2017-08-19T02:54:29.317Z,1003.7
2017-08-19T02:55:32.181Z,1003.7
2017-08-19T02:56:34.686Z,1003.6
2017-08-19T02:57:37.181Z,1003.7
2017-08-19T02:58:40.045Z,1003.6
2017-08-19T02:59:42.883Z,1003.8
2017-08-19T03:00:46.072Z,1003.7
2017-08-19T03:01:49.250Z,1003.7
2017-08-19T03:02:52.093Z,1003.8
2017-08-19T03:03:54.940Z,1003.7
2017-08-19T03:04:57.462Z,1003.8
2017-08-19T03:06:00.301Z,1003.8
2017-08-19T03:07:02.808Z,1003.7
2017-08-19T03:08:05.699Z,1003.7
2017-08-19T03:09:08.569Z,1003.8
2017-08-19T03:10:11.072Z,1003.8
2017-08-19T03:11:14.268Z,1003.8
2017-08-19T03:12:16.788Z,1003.8
2017-08-19T03:13:19.976Z,1003.8
2017-08-19T03:14:22.824Z,1003.8
2017-08-19T03:15:25.342Z,1003.9
2017-08-19T03:16:28.168Z,1003.9
2017-08-19T03:17:30.987Z,1003.9
2017-08-19T03:18:33.829Z,1003.9
2017-08-19T03:19:36.349Z,1003.9
2017-08-19T03:20:39.195Z,1003.9
2017-08-19T03:21:41.708Z,1004
2017-08-19T03:22:44.213Z,1003.9
2017-08-19T03:23:46.727Z,1003.9
2017-08-19T03:24:49.237Z,1004
2017-08-19T03:25:51.731Z,1004
2017-08-19T03:26:54.247Z,1003.9
2017-08-19T03:27:56.772Z,1004
2017-08-19T03:28:59.290Z,1004
2017-08-19T03:30:01.806Z,1004
2017-08-19T03:31:05.725Z,1004
2017-08-19T03:32:08.579Z,1004.1
2017-08-19T03:33:11.435Z,1004.1
2017-08-19T03:34:14.627Z,1004.1
2017-08-19T03:35:17.125Z,1004.2
2017-08-19T03:36:19.633Z,1004.2
2017-08-19T03:37:22.142Z,1004.1
2017-08-19T03:38:24.967Z,1004.1
2017-08-19T03:39:27.468Z,1004.2
2017-08-19T03:40:29.990Z,1004.2
2017-08-19T03:41:32.818Z,1004.3
2017-08-19T03:42:35.318Z,1004.3
2017-08-19T03:43:37.846Z,1004.3
2017-08-19T03:44:40.355Z,1004.3
2017-08-19T03:45:42.861Z,1004.4
2017-08-19T03:46:45.371Z,1004.3
2017-08-19T03:47:47.858Z,1004.3
2017-08-19T03:48:50.375Z,1004.3
2017-08-19T03:49:53.241Z,1004.4
2017-08-19T03:50:56.091Z,1004.3
2017-08-19T03:51:58.936Z,1004.4
2017-08-19T03:53:01.795Z,1004.3
2017-08-19T03:54:04.981Z,1004.5
2017-08-19T03:55:08.161Z,1004.4
2017-08-19T03:56:10.664Z,1004.4
2017-08-19T03:57:13.171Z,1004.5
2017-08-19T03:58:15.689Z,1004.5
2017-08-19T03:59:18.543Z,1004.5
2017-08-19T04:00:21.054Z,1004.5
2017-08-19T04:01:23.562Z,1004.5
2017-08-19T04:02:26.098Z,1004.6
2017-08-19T04:03:29.283Z,1004.6
2017-08-19T04:04:32.154Z,1004.5
2017-08-19T04:05:35.336Z,1004.7
2017-08-19T04:06:38.175Z,1004.7
2017-08-19T04:07:40.681Z,1004.7
2017-08-19T04:08:43.528Z,1004.7
2017-08-19T04:09:46.040Z,1004.6
2017-08-19T04:10:48.543Z,1004.6
2017-08-19T04:11:51.402Z,1004.7
2017-08-19T04:12:54.582Z,1004.6
2017-08-19T04:13:57.437Z,1004.7
2017-08-19T04:14:59.940Z,1004.7
2017-08-19T04:16:03.130Z,1004.7
2017-08-19T04:17:05.978Z,1004.7
2017-08-19T04:18:08.480Z,1004.6
2017-08-19T04:19:11.301Z,1004.6
2017-08-19T04:20:14.172Z,1004.6
2017-08-19T04:21:16.662Z,1004.6
2017-08-19T04:22:19.501Z,1004.6
2017-08-19T04:23:23.729Z,1004.6
2017-08-19T04:24:26.228Z,1004.7
2017-08-19T04:25:28.729Z,1004.6
2017-08-19T04:26:31.243Z,1004.7
2017-08-19T04:27:34.437Z,1004.7
2017-08-19T04:28:37.284Z,1004.7
2017-08-19T04:29:39.808Z,1004.7
2017-08-19T04:30:42.990Z,1004.7
2017-08-19T04:31:45.843Z,1004.7
2017-08-19T04:32:48.337Z,1004.7
2017-08-19T04:33:50.854Z,1004.7
2017-08-19T04:34:53.359Z,1004.7
2017-08-19T04:35:55.877Z,1004.7
2017-08-19T04:36:58.394Z,1004.8
2017-08-19T04:38:00.926Z,1004.7
2017-08-19T04:39:03.771Z,1004.8
2017-08-19T04:40:06.264Z,1004.7
2017-08-19T04:41:08.768Z,1004.7
2017-08-19T04:42:11.268Z,1004.6
2017-08-19T04:43:13.791Z,1004.7
2017-08-19T04:44:16.309Z,1004.7
2017-08-19T04:45:18.837Z,1004.7
2017-08-19T04:46:21.685Z,1004.7
2017-08-19T04:47:24.200Z,1004.7
2017-08-19T04:48:26.719Z,1004.7
2017-08-19T04:49:29.219Z,1004.8
2017-08-19T04:50:31.733Z,1004.8
2017-08-19T04:51:34.236Z,1004.7
2017-08-19T04:52:36.762Z,1004.8
2017-08-19T04:53:39.273Z,1004.7
2017-08-19T04:54:42.140Z,1004.7
2017-08-19T04:55:44.654Z,1004.7
2017-08-19T04:56:47.176Z,1004.8
2017-08-19T04:57:50.010Z,1004.9
2017-08-19T04:58:53.201Z,1004.9
2017-08-19T04:59:55.706Z,1004.8
2017-08-19T05:00:58.554Z,1004.8
2017-08-19T05:02:01.395Z,1004.8
2017-08-19T05:03:04.589Z,1004.8
2017-08-19T05:04:07.754Z,1004.8
2017-08-19T05:05:10.607Z,1004.8
2017-08-19T05:06:13.105Z,1004.8
2017-08-19T05:07:15.605Z,1004.8
2017-08-19T05:08:18.120Z,1004.7
2017-08-19T05:09:21.318Z,1004.8
2017-08-19T05:10:24.168Z,1004.7
2017-08-19T05:11:27.684Z,1004.8
2017-08-19T05:12:30.551Z,1004.8
2017-08-19T05:13:33.053Z,1004.8
2017-08-19T05:14:35.904Z,1004.8
2017-08-19T05:15:38.420Z,1004.7
2017-08-19T05:16:40.920Z,1004.7
2017-08-19T05:17:43.758Z,1004.7
2017-08-19T05:18:46.284Z,1004.8
2017-08-19T05:19:48.778Z,1004.8
2017-08-19T05:20:51.996Z,1004.8
2017-08-19T05:21:54.843Z,1004.7
2017-08-19T05:22:57.686Z,1004.7
2017-08-19T05:24:00.553Z,1004.7
2017-08-19T05:25:03.105Z,1004.7
2017-08-19T05:26:05.613Z,1004.7
2017-08-19T05:27:08.132Z,1004.7
2017-08-19T05:28:10.633Z,1004.7
2017-08-19T05:29:13.834Z,1004.7
2017-08-19T05:30:17.015Z,1004.7
2017-08-19T05:31:20.201Z,1004.7
2017-08-19T05:32:23.051Z,1004.8
2017-08-19T05:33:25.558Z,1004.8
2017-08-19T05:34:28.409Z,1004.8
2017-08-19T05:35:30.930Z,1004.8
2017-08-19T05:36:34.457Z,1004.8
2017-08-19T05:37:37.344Z,1004.9
2017-08-19T05:38:40.176Z,1004.9
2017-08-19T05:39:42.694Z,1004.9
2017-08-19T05:40:45.896Z,1004.9
2017-08-19T05:41:48.438Z,1004.9
2017-08-19T05:42:50.952Z,1004.8
2017-08-19T05:43:54.140Z,1004.9
2017-08-19T05:44:56.668Z,1005
2017-08-19T05:45:59.182Z,1004.8
2017-08-19T05:47:02.041Z,1004.9
2017-08-19T05:48:04.541Z,1004.9
2017-08-19T05:49:07.735Z,1004.9
2017-08-19T05:50:10.921Z,1005
2017-08-19T05:51:13.424Z,1005
2017-08-19T05:52:16.273Z,1004.9
2017-08-19T05:53:19.131Z,1005
2017-08-19T05:54:21.637Z,1005
2017-08-19T05:55:24.136Z,1005
2017-08-19T05:56:27.362Z,1005
2017-08-19T05:57:29.862Z,1005
2017-08-19T05:58:32.370Z,1005.1
2017-08-19T05:59:34.893Z,1005.1
2017-08-19T06:00:37.749Z,1005
2017-08-19T06:01:40.249Z,1005
2017-08-19T06:02:42.771Z,1005.1
2017-08-19T06:03:45.602Z,1005.2
2017-08-19T06:04:48.121Z,1005.1
2017-08-19T06:05:50.619Z,1005.2
2017-08-19T06:06:53.805Z,1005.2
2017-08-19T06:07:56.673Z,1005.2
2017-08-19T06:08:59.191Z,1005.2
2017-08-19T06:10:02.362Z,1005.2
2017-08-19T06:11:05.545Z,1005.2
2017-08-19T06:12:08.062Z,1005.2
2017-08-19T06:13:10.584Z,1005.2
2017-08-19T06:14:13.092Z,1005.2
2017-08-19T06:15:15.603Z,1005.2
2017-08-19T06:16:18.802Z,1005.3
2017-08-19T06:17:21.659Z,1005.2
2017-08-19T06:18:24.871Z,1005.3
2017-08-19T06:19:27.390Z,1005.3
2017-08-19T06:20:30.256Z,1005.2
2017-08-19T06:21:32.769Z,1005.2
2017-08-19T06:22:35.260Z,1005.3
2017-08-19T06:23:38.105Z,1005.3
2017-08-19T06:24:41.287Z,1005.3
2017-08-19T06:25:44.801Z,1005.3
2017-08-19T06:26:47.338Z,1005.2
2017-08-19T06:27:50.176Z,1005.3
2017-08-19T06:28:52.680Z,1005.3
2017-08-19T06:29:55.200Z,1005.3
2017-08-19T06:30:57.707Z,1005.3
2017-08-19T06:32:00.223Z,1005.4
2017-08-19T06:33:02.725Z,1005.3
2017-08-19T06:34:05.268Z,1005.3
2017-08-19T06:35:07.779Z,1005.4
2017-08-19T06:36:10.282Z,1005.4
2017-08-19T06:37:13.112Z,1005.4
2017-08-19T06:38:16.008Z,1005.4
2017-08-19T06:39:18.855Z,1005.4
2017-08-19T06:40:21.701Z,1005.5
2017-08-19T06:41:24.201Z,1005.4
2017-08-19T06:42:26.709Z,1005.5
2017-08-19T06:43:29.890Z,1005.5
2017-08-19T06:44:32.750Z,1005.5
2017-08-19T06:45:35.586Z,1005.5
2017-08-19T06:46:38.774Z,1005.6
2017-08-19T06:47:41.627Z,1005.5
2017-08-19T06:48:44.471Z,1005.6
2017-08-19T06:49:47.014Z,1005.6
2017-08-19T06:50:49.873Z,1005.6
2017-08-19T06:51:52.695Z,1005.7
2017-08-19T06:52:55.233Z,1005.7
2017-08-19T06:53:57.744Z,1005.6
2017-08-19T06:55:00.248Z,1005.7
2017-08-19T06:56:03.439Z,1005.7
2017-08-19T06:57:05.949Z,1005.6
2017-08-19T06:58:08.462Z,1005.6
2017-08-19T06:59:11.010Z,1005.7
2017-08-19T07:00:13.507Z,1005.7
2017-08-19T07:01:16.011Z,1005.6
2017-08-19T07:02:19.207Z,1005.6
2017-08-19T07:03:21.721Z,1005.6
2017-08-19T07:04:24.233Z,1005.7
2017-08-19T07:05:27.100Z,1005.7
2017-08-19T07:06:29.637Z,1005.6
2017-08-19T07:07:32.853Z,1005.5
2017-08-19T07:08:35.693Z,1005.7
2017-08-19T07:09:38.222Z,1005.7
2017-08-19T07:10:41.062Z,1005.7
2017-08-19T07:11:43.907Z,1005.7
2017-08-19T07:12:46.763Z,1005.7
2017-08-19T07:13:49.266Z,1005.8
2017-08-19T07:14:51.770Z,1005.8
2017-08-19T07:15:54.615Z,1005.7
2017-08-19T07:16:57.445Z,1005.8
2017-08-19T07:17:59.953Z,1005.8
2017-08-19T07:19:03.176Z,1005.8
2017-08-19T07:20:06.022Z,1005.8
2017-08-19T07:21:08.884Z,1005.8
2017-08-19T07:22:12.066Z,1005.9
2017-08-19T07:23:14.567Z,1006
2017-08-19T07:24:17.432Z,1005.8
2017-08-19T07:25:20.640Z,1005.9
2017-08-19T07:26:23.147Z,1005.9
2017-08-19T07:27:26.354Z,1005.8
2017-08-19T07:28:29.199Z,1005.9
2017-08-19T07:29:31.704Z,1005.9
2017-08-19T07:30:34.554Z,1005.9
2017-08-19T07:31:37.051Z,1005.9
2017-08-19T07:32:39.589Z,1005.9
2017-08-19T07:33:42.430Z,1006
2017-08-19T07:34:45.290Z,1006
2017-08-19T07:35:48.126Z,1006
2017-08-19T07:36:51.307Z,1006
2017-08-19T07:37:53.821Z,1006
2017-08-19T07:38:56.345Z,1006
2017-08-19T07:39:59.179Z,1006
2017-08-19T07:41:02.020Z,1006.1
2017-08-19T07:42:05.203Z,1006.1
2017-08-19T07:43:08.052Z,1006.1
2017-08-19T07:44:10.587Z,1006.1
2017-08-19T07:45:13.107Z,1006.1
2017-08-19T07:46:15.949Z,1006.1
2017-08-19T07:47:18.458Z,1006
2017-08-19T07:48:20.986Z,1006.1
2017-08-19T07:49:23.494Z,1006.1
2017-08-19T07:50:25.998Z,1006.1
2017-08-19T07:51:28.503Z,1006
2017-08-19T07:52:31.018Z,1006.1
2017-08-19T07:53:33.527Z,1006.1
2017-08-19T07:54:36.387Z,1006.1
2017-08-19T07:55:38.910Z,1006.1
2017-08-19T07:56:41.761Z,1006.1
2017-08-19T07:57:44.963Z,1006.1
2017-08-19T07:58:48.779Z,1006.1
2017-08-19T07:59:51.637Z,1006.2
2017-08-19T08:00:54.158Z,1006.1
2017-08-19T08:01:56.680Z,1006.1
2017-08-19T08:02:59.191Z,1006.1
2017-08-19T08:04:01.720Z,1006.2
2017-08-19T08:05:04.577Z,1006.2
2017-08-19T08:06:07.785Z,1006.3
2017-08-19T08:07:10.649Z,1006.3
2017-08-19T08:08:13.825Z,1006
2017-08-19T08:09:16.350Z,1006.3
2017-08-19T08:10:19.221Z,1006.3
2017-08-19T08:11:21.712Z,1006.3
2017-08-19T08:12:24.580Z,1006.3
2017-08-19T08:13:27.103Z,1006.3
2017-08-19T08:14:29.627Z,1006.3
2017-08-19T08:15:32.491Z,1006.3
2017-08-19T08:16:35.003Z,1006.3
2017-08-19T08:17:37.501Z,1006.3
2017-08-19T08:18:40.372Z,1006.4
2017-08-19T08:19:43.554Z,1006.3
2017-08-19T08:20:46.071Z,1006.4
2017-08-19T08:21:48.923Z,1006.4
2017-08-19T08:22:52.126Z,1006.4
2017-08-19T08:23:54.992Z,1006.4
2017-08-19T08:24:57.861Z,1006.4
2017-08-19T08:26:00.366Z,1006.4
2017-08-19T08:27:03.244Z,1006.5
2017-08-19T08:28:06.452Z,1006.5
2017-08-19T08:29:08.955Z,1006.4
2017-08-19T08:30:12.155Z,1006.5
2017-08-19T08:31:14.667Z,1006.5
2017-08-19T08:32:17.162Z,1006.5
2017-08-19T08:33:20.026Z,1006.5
2017-08-19T08:34:22.902Z,1006.5
2017-08-19T08:35:25.762Z,1006.5
2017-08-19T08:36:28.627Z,1006.5
2017-08-19T08:37:31.502Z,1006.5
2017-08-19T08:38:34.353Z,1006.5
2017-08-19T08:39:36.878Z,1006.6
2017-08-19T08:40:39.402Z,1006.5
2017-08-19T08:41:41.927Z,1006.5
2017-08-19T08:42:44.820Z,1006.5
2017-08-19T08:43:47.329Z,1006.6
2017-08-19T08:44:50.179Z,1006.5
2017-08-19T08:45:53.049Z,1006.4
2017-08-19T08:46:55.577Z,1006.5
2017-08-19T08:47:58.086Z,1006.5
2017-08-19T08:49:00.603Z,1006.5
2017-08-19T08:50:03.494Z,1006.5
2017-08-19T08:51:05.999Z,1006.5
2017-08-19T08:52:08.870Z,1006.5
2017-08-19T08:53:11.737Z,1006.5
2017-08-19T08:54:14.264Z,1006.5
2017-08-19T08:55:17.126Z,1006.5
2017-08-19T08:56:19.989Z,1006.5
2017-08-19T08:57:22.829Z,1006.5
2017-08-19T08:58:25.355Z,1006.5
2017-08-19T08:59:28.206Z,1006.5
2017-08-19T09:00:31.047Z,1006.5
2017-08-19T09:01:33.954Z,1006.4
2017-08-19T09:02:36.806Z,1006.5
2017-08-19T09:03:39.306Z,1006.5
2017-08-19T09:04:41.825Z,1006.5
2017-08-19T09:05:44.739Z,1006.5
2017-08-19T09:06:47.260Z,1006.5
2017-08-19T09:07:49.781Z,1006.5
2017-08-19T09:08:52.312Z,1006.5
2017-08-19T09:09:55.161Z,1006.6
2017-08-19T09:10:58.045Z,1006.5
2017-08-19T09:12:00.893Z,1006.6
2017-08-19T09:13:04.091Z,1006.5
2017-08-19T09:14:07.280Z,1006.5
2017-08-19T09:15:09.842Z,1006.5
2017-08-19T09:16:12.703Z,1006.5
2017-08-19T09:17:15.220Z,1006.6
2017-08-19T09:18:18.430Z,1006.6
2017-08-19T09:19:20.965Z,1006.6
2017-08-19T09:20:23.485Z,1006.7
2017-08-19T09:21:26.352Z,1006.6
2017-08-19T09:22:29.197Z,1006.6
2017-08-19T09:23:32.054Z,1006.5
2017-08-19T09:24:34.597Z,1006.5
2017-08-19T09:25:37.093Z,1006.6
2017-08-19T09:26:39.952Z,1006.7
2017-08-19T09:27:42.814Z,1006.6
2017-08-19T09:28:45.670Z,1006.6
2017-08-19T09:29:48.195Z,1006.6
2017-08-19T09:30:50.726Z,1006.6
2017-08-19T09:31:53.227Z,1006.6
2017-08-19T09:32:56.093Z,1006.7
2017-08-19T09:33:58.971Z,1006.7
2017-08-19T09:35:01.490Z,1006.6
2017-08-19T09:36:04.343Z,1006.7
2017-08-19T09:37:06.859Z,1006.6
2017-08-19T09:38:09.408Z,1006.7
2017-08-19T09:39:11.917Z,1006.7
2017-08-19T09:40:14.782Z,1006.7
2017-08-19T09:41:17.627Z,1006.7
2017-08-19T09:42:20.151Z,1006.7
2017-08-19T09:43:22.658Z,1006.7
2017-08-19T09:44:25.169Z,1006.7
2017-08-19T09:45:27.688Z,1006.7
2017-08-19T09:46:30.231Z,1006.7
2017-08-19T09:47:32.745Z,1006.7
2017-08-19T09:48:35.618Z,1006.8
2017-08-19T09:49:38.141Z,1006.7
2017-08-19T09:50:40.641Z,1006.7
2017-08-19T09:51:43.179Z,1006.7
2017-08-19T09:52:45.697Z,1006.7
2017-08-19T09:53:48.216Z,1006.6
2017-08-19T09:54:50.744Z,1006.8
2017-08-19T09:55:53.262Z,1006.8
2017-08-19T09:56:56.131Z,1006.8
2017-08-19T09:57:59.004Z,1006.8
2017-08-19T09:59:01.530Z,1006.8
2017-08-19T10:00:04.748Z,1006.8
2017-08-19T10:01:07.280Z,1006.8
2017-08-19T10:02:10.128Z,1006.7
2017-08-19T10:03:12.966Z,1006.7
2017-08-19T10:04:15.497Z,1006.7
2017-08-19T10:05:18.017Z,1006.8
2017-08-19T10:06:20.536Z,1006.7
2017-08-19T10:07:23.376Z,1006.8
2017-08-19T10:08:26.607Z,1006.9
2017-08-19T10:09:29.487Z,1006.7
2017-08-19T10:10:32.693Z,1006.8
2017-08-19T10:11:35.208Z,1006.8
2017-08-19T10:12:37.702Z,1006.8
2017-08-19T10:13:40.559Z,1006.8
2017-08-19T10:14:43.421Z,1006.8
2017-08-19T10:15:46.624Z,1006.8
2017-08-19T10:16:49.489Z,1006.8
2017-08-19T10:17:52.677Z,1006.8
2017-08-19T10:18:55.190Z,1006.8
2017-08-19T10:19:58.052Z,1006.7
2017-08-19T10:21:00.914Z,1006.7
2017-08-19T10:22:03.420Z,1006.6
2017-08-19T10:23:06.275Z,1006.7
2017-08-19T10:24:08.796Z,1006.6
2017-08-19T10:25:11.317Z,1006.6
2017-08-19T10:26:13.848Z,1006.6
2017-08-19T10:27:16.719Z,1006.6
2017-08-19T10:28:19.582Z,1006.6
2017-08-19T10:29:22.471Z,1006.6
2017-08-19T10:30:26.007Z,1006.6
2017-08-19T10:31:28.879Z,1006.7
2017-08-19T10:32:31.388Z,1006.7
2017-08-19T10:33:33.919Z,1006.6
2017-08-19T10:34:36.450Z,1006.7
2017-08-19T10:35:38.994Z,1006.8
2017-08-19T10:36:41.488Z,1006.7
2017-08-19T10:37:44.354Z,1006.7
2017-08-19T10:38:47.250Z,1006.8
2017-08-19T10:39:50.102Z,1006.7
2017-08-19T10:40:52.625Z,1006.8
2017-08-19T10:41:55.140Z,1006.8
2017-08-19T10:42:57.664Z,1006.8
2017-08-19T10:44:00.197Z,1006.8
2017-08-19T10:45:03.745Z,1006.8
2017-08-19T10:46:06.605Z,1006.8
2017-08-19T10:47:09.818Z,1006.8
2017-08-19T10:48:12.675Z,1006.8
2017-08-19T10:49:15.191Z,1006.8
2017-08-19T10:50:18.751Z,1006.8
2017-08-19T10:51:21.952Z,1006.8
2017-08-19T10:52:24.468Z,1006.8
2017-08-19T10:53:27.334Z,1006.8
2017-08-19T10:54:29.849Z,1006.8
2017-08-19T10:55:32.726Z,1006.8
2017-08-19T10:56:35.239Z,1006.8
2017-08-19T10:57:37.759Z,1006.8
2017-08-19T10:58:40.283Z,1006.8
2017-08-19T10:59:42.797Z,1006.8
2017-08-19T11:00:45.664Z,1006.7
2017-08-19T11:01:48.188Z,1006.7
2017-08-19T11:02:50.706Z,1006.7
2017-08-19T11:03:53.229Z,1006.7
2017-08-19T11:04:56.093Z,1006.7
2017-08-19T11:05:58.620Z,1006.6
2017-08-19T11:07:01.130Z,1006.6
2017-08-19T11:08:03.999Z,1006.6
2017-08-19T11:09:06.507Z,1006.6
2017-08-19T11:10:09.065Z,1006.6
2017-08-19T11:11:11.581Z,1006.6
2017-08-19T11:12:14.097Z,1006.6
2017-08-19T11:13:16.963Z,1006.7
2017-08-19T11:14:19.824Z,1006.7
2017-08-19T11:15:22.682Z,1006.6
2017-08-19T11:16:25.200Z,1006.7
2017-08-19T11:17:28.079Z,1006.6
2017-08-19T11:18:30.946Z,1006.7
2017-08-19T11:19:33.808Z,1006.7
2017-08-19T11:20:36.324Z,1006.7
2017-08-19T11:21:38.854Z,1006.7
2017-08-19T11:22:41.367Z,1006.7
2017-08-19T11:23:43.893Z,1006.7
2017-08-19T11:24:46.417Z,1006.7
2017-08-19T11:25:48.928Z,1006.7
2017-08-19T11:26:51.452Z,1006.8
2017-08-19T11:27:53.990Z,1006.8
2017-08-19T11:28:56.495Z,1006.8
2017-08-19T11:29:59.709Z,1006.8
2017-08-19T11:31:02.919Z,1006.8
2017-08-19T11:32:05.430Z,1006.8
2017-08-19T11:33:08.309Z,1006.8
2017-08-19T11:34:11.184Z,1006.8
2017-08-19T11:35:14.072Z,1006.8
2017-08-19T11:36:17.578Z,1006.8
2017-08-19T11:37:20.438Z,1006.8
2017-08-19T11:38:22.958Z,1006.8
2017-08-19T11:39:25.815Z,1006.8
2017-08-19T11:40:28.354Z,1006.8
2017-08-19T11:41:31.577Z,1006.8
2017-08-19T11:42:34.428Z,1006.9
2017-08-19T11:43:37.292Z,1006.9
2017-08-19T11:44:40.135Z,1006.9
2017-08-19T11:45:42.658Z,1006.8
2017-08-19T11:46:45.195Z,1006.9
2017-08-19T11:47:48.032Z,1006.9
2017-08-19T11:48:50.544Z,1006.9
2017-08-19T11:49:53.072Z,1006.8
2017-08-19T11:50:55.585Z,1006.8
2017-08-19T11:51:58.113Z,1006.9
2017-08-19T11:53:00.650Z,1006.8
2017-08-19T11:54:03.491Z,1007
2017-08-19T11:55:06.371Z,1006.9
2017-08-19T11:56:08.886Z,1006.9
2017-08-19T11:57:11.396Z,1006.9
2017-08-19T11:58:13.933Z,1006.9
2017-08-19T11:59:16.818Z,1007
2017-08-19T12:00:19.675Z,1006.9
2017-08-19T12:01:22.527Z,1007
2017-08-19T12:02:25.402Z,1007.1
2017-08-19T12:03:27.917Z,1007
2017-08-19T12:04:30.424Z,1007
2017-08-19T12:05:32.942Z,1007
2017-08-19T12:06:35.799Z,1007
2017-08-19T12:07:38.682Z,1006.9
2017-08-19T12:08:41.206Z,1006.9
2017-08-19T12:09:44.044Z,1006.9
2017-08-19T12:10:46.559Z,1007
2017-08-19T12:11:49.095Z,1006.9
2017-08-19T12:12:51.956Z,1007
2017-08-19T12:13:54.815Z,1007
2017-08-19T12:14:57.323Z,1007
2017-08-19T12:15:59.832Z,1007
2017-08-19T12:17:02.691Z,1007
2017-08-19T12:18:05.228Z,1007
2017-08-19T12:19:08.067Z,1007.1
2017-08-19T12:20:10.956Z,1007
2017-08-19T12:21:13.473Z,1006.9
2017-08-19T12:22:16.004Z,1007
2017-08-19T12:23:19.210Z,1007
2017-08-19T12:24:22.086Z,1007
2017-08-19T12:25:24.598Z,1007.1
2017-08-19T12:26:27.825Z,1007
2017-08-19T12:27:30.350Z,1007.1
2017-08-19T12:28:32.864Z,1007.1
2017-08-19T12:29:35.377Z,1007.1
2017-08-19T12:30:37.919Z,1007.2
2017-08-19T12:31:40.451Z,1007.1
2017-08-19T12:32:43.660Z,1007
2017-08-19T12:33:46.187Z,1007.2
2017-08-19T12:34:49.030Z,1007.1
2017-08-19T12:35:52.230Z,1007.1
2017-08-19T12:36:55.107Z,1007.2
2017-08-19T12:37:57.964Z,1007.2
2017-08-19T12:39:00.485Z,1007.2
2017-08-19T12:40:03.011Z,1007.2
2017-08-19T12:41:05.868Z,1007.3
2017-08-19T12:42:08.729Z,1007.3
2017-08-19T12:43:11.236Z,1007.3
2017-08-19T12:44:13.744Z,1007.3
2017-08-19T12:45:16.279Z,1007.3
2017-08-19T12:46:18.799Z,1007.2
2017-08-19T12:47:21.303Z,1007.2
2017-08-19T12:48:24.168Z,1007.1
2017-08-19T12:49:26.676Z,1007.1
2017-08-19T12:50:29.542Z,1007.2
2017-08-19T12:51:32.071Z,1007.1
2017-08-19T12:52:34.898Z,1007.2
2017-08-19T12:53:37.413Z,1007.1
2017-08-19T12:54:39.925Z,1007.1
2017-08-19T12:55:42.437Z,1007.1
2017-08-19T12:56:44.963Z,1007.1
2017-08-19T12:57:47.475Z,1007.1
2017-08-19T12:58:50.003Z,1007.1
2017-08-19T12:59:52.873Z,1007
2017-08-19T13:00:55.715Z,1007
2017-08-19T13:01:58.310Z,1007.2
2017-08-19T13:03:01.170Z,1007.1
2017-08-19T13:04:04.392Z,1007.2
2017-08-19T13:05:06.902Z,1007.1
2017-08-19T13:06:09.427Z,1007.1
2017-08-19T13:07:12.288Z,1007